Time;durP1;ratioP1;P1;durP2;ratioP2;P2;SDS_P1;SDS_P2;PMS_P1;PMS_P2;Temp;Humidity;BMP_temperature;BMP_pressure;BME280_temperature;BME280_humidity;BME280_pressure;Samples;Min_cycle;Max_cycle;Signal;HPM_P1;HPM_P2
2021/07/25 00:00:00;;;;;;;23.40;21.10;;;;;;;;;;5033970;28;20449;-55
2021/07/25 00:02:27;;;;;;;23.87;21.33;;;;;;;;;;5033132;28;21036;-55
2021/07/25 00:04:54;;;;;;;23.57;21.07;;;;;;;;;;5033382;28;20453;-55
2021/07/25 00:07:22;;;;;;;23.63;20.90;;;;;;;;;;5033405;28;20503;-55
2021/07/25 00:09:49;;;;;;;24.77;22.27;;;;;;;;;;5033296;28;20445;-56
2021/07/25 00:12:16;;;;;;;25.07;22.67;;;;;;;;;;5032792;28;20464;-55
2021/07/25 00:14:44;;;;;;;26.27;23.50;;;;;;;;;;5033244;28;20449;-55
2021/07/25 00:17:12;;;;;;;28.03;24.43;;;;;;;;;;5032944;28;20450;-56
2021/07/25 00:19:40;;;;;;;25.60;23.00;;;;;;;;;;5032885;28;20499;-55
2021/07/25 00:22:07;;;;;;;24.23;21.87;;;;;;;;;;5032876;28;20535;-55
2021/07/25 00:24:36;;;;;;;32.13;25.63;;;;;;;;;;5036151;28;20437;-55
2021/07/25 00:27:04;;;;;;;26.67;23.97;;;;;;;;;;5037361;28;20456;-55
2021/07/25 00:29:31;;;;;;;29.47;26.60;;;;;;;;;;5037171;28;20448;-55
2021/07/25 00:32:02;;;;;;;31.13;27.67;;;;;;;;;;5037183;28;20515;-55
2021/07/25 00:34:31;;;;;;;29.07;25.70;;;;;;;;;;5036709;28;20631;-56
2021/07/25 00:36:58;;;;;;;30.87;26.70;;;;;;;;;;5037056;28;20513;-55
2021/07/25 00:39:26;;;;;;;29.97;26.70;;;;;;;;;;5037456;28;20778;-55
2021/07/25 00:41:53;;;;;;;28.43;25.43;;;;;;;;;;5036991;28;20518;-55
2021/07/25 00:44:20;;;;;;;27.10;24.40;;;;;;;;;;5036994;28;20483;-55
2021/07/25 00:46:48;;;;;;;29.13;25.57;;;;;;;;;;5036567;28;20503;-55
2021/07/25 00:49:15;;;;;;;30.63;27.40;;;;;;;;;;5036528;28;20856;-55
2021/07/25 00:51:44;;;;;;;29.40;26.43;;;;;;;;;;5036441;28;20461;-55
2021/07/25 00:54:12;;;;;;;30.00;26.80;;;;;;;;;;5036708;28;20477;-56
2021/07/25 00:56:39;;;;;;;29.80;26.60;;;;;;;;;;5036754;28;20437;-55
2021/07/25 00:59:06;;;;;;;29.93;26.20;;;;;;;;;;5036642;28;20449;-55
2021/07/25 01:01:33;;;;;;;30.90;27.80;;;;;;;;;;5036485;28;20484;-55
2021/07/25 01:04:10;;;;;;;31.63;28.10;;;;;;;;;;5036265;28;20441;-55
2021/07/25 01:06:43;;;;;;;33.13;29.53;;;;;;;;;;5036291;28;20487;-54
2021/07/25 01:09:14;;;;;;;29.80;26.70;;;;;;;;;;5036494;28;20429;-55
2021/07/25 01:11:42;;;;;;;31.97;28.50;;;;;;;;;;5036422;28;20473;-55
2021/07/25 01:14:09;;;;;;;33.03;28.43;;;;;;;;;;5037067;28;21000;-55
2021/07/25 01:16:36;;;;;;;33.80;30.20;;;;;;;;;;5036009;28;20999;-55
2021/07/25 01:19:04;;;;;;;32.30;28.80;;;;;;;;;;5035988;28;20448;-55
2021/07/25 01:21:32;;;;;;;33.90;29.73;;;;;;;;;;5035984;28;20492;-55
2021/07/25 01:24:00;;;;;;;33.43;28.23;;;;;;;;;;5036220;28;20499;-55
2021/07/25 01:26:28;;;;;;;34.80;31.00;;;;;;;;;;5036229;28;20503;-55
2021/07/25 01:28:57;;;;;;;38.70;34.50;;;;;;;;;;5036003;28;20635;-55
2021/07/25 01:31:27;;;;;;;37.27;32.50;;;;;;;;;;5035513;28;20465;-55
2021/07/25 01:33:55;;;;;;;41.60;34.53;;;;;;;;;;5036061;28;20465;-55
2021/07/25 01:36:22;;;;;;;38.93;34.80;;;;;;;;;;5035403;28;20502;-55
2021/07/25 01:38:53;;;;;;;43.63;35.20;;;;;;;;;;5036851;28;20471;-55
2021/07/25 01:41:20;;;;;;;39.13;34.83;;;;;;;;;;5035873;28;20464;-55
2021/07/25 01:43:49;;;;;;;41.10;36.20;;;;;;;;;;5035904;28;20495;-55
2021/07/25 01:46:16;;;;;;;39.93;35.67;;;;;;;;;;5036655;28;20511;-55
2021/07/25 01:48:43;;;;;;;38.07;33.87;;;;;;;;;;5035724;28;20795;-55
2021/07/25 01:51:12;;;;;;;40.40;34.63;;;;;;;;;;5035248;28;20969;-55
2021/07/25 01:53:39;;;;;;;39.90;34.93;;;;;;;;;;5035261;28;20503;-55
2021/07/25 01:56:08;;;;;;;42.90;35.60;;;;;;;;;;5035590;28;20873;-55
2021/07/25 01:58:35;;;;;;;45.30;36.50;;;;;;;;;;5035613;28;20499;-55
2021/07/25 02:01:03;;;;;;;40.17;35.57;;;;;;;;;;5035441;28;20449;-55
2021/07/25 02:03:30;;;;;;;41.27;35.33;;;;;;;;;;5035096;28;20441;-55
2021/07/25 02:05:57;;;;;;;39.63;35.07;;;;;;;;;;5035425;28;20502;-55
2021/07/25 02:08:24;;;;;;;38.83;33.97;;;;;;;;;;5034987;28;21010;-55
2021/07/25 02:10:52;;;;;;;45.33;35.57;;;;;;;;;;5034909;28;20502;-55
2021/07/25 02:13:22;;;;;;;42.30;35.47;;;;;;;;;;5035191;28;20526;-55
2021/07/25 02:15:50;;;;;;;40.80;35.93;;;;;;;;;;5034828;28;20441;-55
2021/07/25 02:18:17;;;;;;;42.70;36.33;;;;;;;;;;5034870;28;20449;-55
2021/07/25 02:20:44;;;;;;;40.90;35.57;;;;;;;;;;5035135;28;20449;-55
2021/07/25 02:23:11;;;;;;;45.33;36.87;;;;;;;;;;5059217;22;20584;-58
2021/07/25 02:25:39;;;;;;;42.73;37.20;;;;;;;;;;5034941;28;20464;-58
2021/07/25 02:28:06;;;;;;;43.00;37.47;;;;;;;;;;5035273;28;20526;-59
2021/07/25 02:30:35;;;;;;;50.57;39.73;;;;;;;;;;5035266;28;20455;-59
2021/07/25 02:33:02;;;;;;;45.17;37.20;;;;;;;;;;5034880;28;20457;-59
2021/07/25 02:35:30;;;;;;;46.23;37.13;;;;;;;;;;5034855;28;20445;-60
2021/07/25 02:37:57;;;;;;;46.63;37.90;;;;;;;;;;5035543;28;21004;-59
2021/07/25 02:40:25;;;;;;;46.53;37.43;;;;;;;;;;5034525;28;20453;-59
2021/07/25 02:42:52;;;;;;;51.57;38.77;;;;;;;;;;5034500;28;20460;-59
2021/07/25 02:45:20;;;;;;;41.80;37.20;;;;;;;;;;5034550;28;20503;-58
2021/07/25 02:47:48;;;;;;;44.43;39.63;;;;;;;;;;5033465;28;20444;-60
2021/07/25 02:50:16;;;;;;;52.53;38.87;;;;;;;;;;5034264;28;20452;-59
2021/07/25 02:52:43;;;;;;;44.30;37.80;;;;;;;;;;5034393;28;20514;-58
2021/07/25 02:55:10;;;;;;;45.50;39.20;;;;;;;;;;5035127;28;20539;-59
2021/07/25 02:57:38;;;;;;;47.97;38.57;;;;;;;;;;5034428;28;20449;-59
2021/07/25 03:00:06;;;;;;;49.07;40.80;;;;;;;;;;5034345;28;20519;-59
2021/07/25 03:02:36;;;;;;;42.40;37.07;;;;;;;;;;5034834;28;20519;-59
2021/07/25 03:05:06;;;;;;;46.83;39.80;;;;;;;;;;5034101;28;21020;-59
2021/07/25 03:07:33;;;;;;;49.30;39.37;;;;;;;;;;5034044;28;20445;-59
2021/07/25 03:10:00;;;;;;;49.17;40.70;;;;;;;;;;5034385;28;20453;-59
2021/07/25 03:12:27;;;;;;;46.93;40.27;;;;;;;;;;5034017;28;20961;-60
2021/07/25 03:14:55;;;;;;;46.80;41.70;;;;;;;;;;5034224;28;20527;-59
2021/07/25 03:17:22;;;;;;;51.10;39.23;;;;;;;;;;5034258;28;20495;-59
2021/07/25 03:19:49;;;;;;;48.07;39.70;;;;;;;;;;5033831;28;20929;-59
2021/07/25 03:22:18;;;;;;;45.53;39.20;;;;;;;;;;5034011;28;20481;-59
2021/07/25 03:24:45;;;;;;;47.37;40.17;;;;;;;;;;5033822;28;20941;-59
2021/07/25 03:27:12;;;;;;;47.50;40.50;;;;;;;;;;5033680;28;20457;-58
2021/07/25 03:29:39;;;;;;;49.93;39.37;;;;;;;;;;5033542;28;20456;-59
2021/07/25 03:32:07;;;;;;;46.90;39.97;;;;;;;;;;5033478;28;20511;-59
2021/07/25 03:34:34;;;;;;;45.60;38.10;;;;;;;;;;5033713;28;20481;-59
2021/07/25 03:37:02;;;;;;;44.70;38.30;;;;;;;;;;5033680;28;20937;-59
2021/07/25 03:39:31;;;;;;;58.17;43.17;;;;;;;;;;5033308;28;20452;-59
2021/07/25 03:41:58;;;;;;;44.70;38.40;;;;;;;;;;5033399;28;20524;-60
2021/07/25 03:44:25;;;;;;;46.73;41.60;;;;;;;;;;5033285;28;20527;-59
2021/07/25 03:46:53;;;;;;;46.47;37.90;;;;;;;;;;5033581;28;20534;-59
2021/07/25 03:49:20;;;;;;;48.57;40.30;;;;;;;;;;5033636;28;20445;-60
2021/07/25 03:51:47;;;;;;;49.33;40.30;;;;;;;;;;5033511;28;20473;-60
2021/07/25 03:54:15;;;;;;;49.30;39.60;;;;;;;;;;5033428;28;20550;-59
2021/07/25 03:56:44;;;;;;;49.60;39.77;;;;;;;;;;5033468;28;20452;-59
2021/07/25 03:59:11;;;;;;;50.03;37.80;;;;;;;;;;5033170;28;20448;-60
2021/07/25 04:01:38;;;;;;;44.57;37.97;;;;;;;;;;5033265;28;20449;-60
2021/07/25 04:04:05;;;;;;;46.70;39.20;;;;;;;;;;5033020;28;20510;-59
2021/07/25 04:08:24;;;;;;;41.57;36.30;;;;;;;;;;5111735;27;20551;-60
2021/07/25 04:10:51;;;;;;;41.80;36.30;;;;;;;;;;5111305;28;20441;-61
2021/07/25 04:13:18;;;;;;;46.23;38.23;;;;;;;;;;5111124;28;20877;-58
2021/07/25 04:15:47;;;;;;;40.00;35.70;;;;;;;;;;5110737;28;20472;-60
2021/07/25 04:18:14;;;;;;;39.00;34.80;;;;;;;;;;5111057;28;20502;-60
2021/07/25 04:20:42;;;;;;;37.87;33.83;;;;;;;;;;5110837;28;20851;-60
2021/07/25 04:23:09;;;;;;;43.53;34.00;;;;;;;;;;5110622;28;20461;-59
2021/07/25 04:25:38;;;;;;;36.37;32.13;;;;;;;;;;5111394;28;20502;-61
2021/07/25 04:28:06;;;;;;;34.03;30.13;;;;;;;;;;5110454;28;20469;-60
2021/07/25 04:30:34;;;;;;;34.87;31.10;;;;;;;;;;5111327;28;20806;-59
2021/07/25 04:33:02;;;;;;;35.40;30.90;;;;;;;;;;5110784;28;20466;-59
2021/07/25 04:35:31;;;;;;;33.43;28.67;;;;;;;;;;5110685;28;20510;-59
2021/07/25 04:37:58;;;;;;;29.67;26.60;;;;;;;;;;5110458;28;20893;-59
2021/07/25 04:40:26;;;;;;;35.13;29.77;;;;;;;;;;5110625;28;20503;-60
2021/07/25 04:42:55;;;;;;;32.37;28.70;;;;;;;;;;5110184;28;20843;-60
2021/07/25 04:45:26;;;;;;;31.90;27.70;;;;;;;;;;5110496;28;20919;-59
2021/07/25 04:47:58;;;;;;;30.60;27.30;;;;;;;;;;5110624;28;20532;-59
2021/07/25 04:50:27;;;;;;;29.70;26.67;;;;;;;;;;5110280;28;20472;-60
2021/07/25 04:52:56;;;;;;;29.70;26.77;;;;;;;;;;5110297;28;20460;-58
2021/07/25 04:55:24;;;;;;;27.60;24.80;;;;;;;;;;5110493;28;20447;-59
2021/07/25 04:57:55;;;;;;;28.53;25.60;;;;;;;;;;5110928;28;20444;-60
2021/07/25 05:00:24;;;;;;;27.23;24.30;;;;;;;;;;5110605;28;20494;-60
2021/07/25 05:02:57;;;;;;;25.67;23.13;;;;;;;;;;5110066;28;20518;-60
2021/07/25 05:05:24;;;;;;;26.87;23.33;;;;;;;;;;5109932;28;20436;-61
2021/07/25 05:07:52;;;;;;;29.03;24.47;;;;;;;;;;5109653;28;20949;-59
2021/07/25 05:10:20;;;;;;;26.57;23.97;;;;;;;;;;5109811;28;20499;-59
2021/07/25 05:12:50;;;;;;;26.93;24.23;;;;;;;;;;5110735;28;20468;-59
2021/07/25 05:15:20;;;;;;;27.97;24.97;;;;;;;;;;5110071;28;20435;-61
2021/07/25 05:17:52;;;;;;;24.60;22.20;;;;;;;;;;5107811;28;20512;-60
2021/07/25 05:20:20;;;;;;;25.60;22.87;;;;;;;;;;5096882;28;20456;-60
2021/07/25 05:22:50;;;;;;;26.20;23.40;;;;;;;;;;5096223;28;20469;-59
2021/07/25 05:25:18;;;;;;;24.90;22.27;;;;;;;;;;5096285;28;20445;-59
2021/07/25 05:27:47;;;;;;;24.13;21.73;;;;;;;;;;5095979;28;20523;-61
2021/07/25 05:30:15;;;;;;;26.30;23.63;;;;;;;;;;5096650;28;20449;-61
2021/07/25 05:32:43;;;;;;;24.37;21.80;;;;;;;;;;5096355;28;20536;-60
2021/07/25 05:35:12;;;;;;;25.97;23.20;;;;;;;;;;5096433;28;20512;-59
2021/07/25 05:37:39;;;;;;;25.83;23.07;;;;;;;;;;5096408;28;20503;-60
2021/07/25 05:40:07;;;;;;;25.40;22.07;;;;;;;;;;5096878;28;20436;-61
2021/07/25 05:42:35;;;;;;;24.77;22.07;;;;;;;;;;5096709;28;20472;-59
2021/07/25 05:45:02;;;;;;;24.93;22.00;;;;;;;;;;5099287;28;20495;-60
2021/07/25 05:47:29;;;;;;;24.53;20.77;;;;;;;;;;5096006;28;20991;-60
2021/07/25 05:49:56;;;;;;;24.47;22.00;;;;;;;;;;5095732;28;20449;-60
2021/07/25 05:52:25;;;;;;;22.00;19.67;;;;;;;;;;5095780;28;20468;-60
2021/07/25 05:54:52;;;;;;;23.50;21.03;;;;;;;;;;5095896;28;20443;-60
2021/07/25 05:57:19;;;;;;;23.27;20.87;;;;;;;;;;5095797;28;20467;-60
2021/07/25 05:59:47;;;;;;;20.80;18.60;;;;;;;;;;5096150;28;20454;-59
2021/07/25 06:02:14;;;;;;;22.50;20.00;;;;;;;;;;5095547;28;20473;-60
2021/07/25 06:04:41;;;;;;;20.97;18.67;;;;;;;;;;5095548;28;20449;-60
2021/07/25 06:07:08;;;;;;;20.83;18.80;;;;;;;;;;5094971;28;20479;-61
2021/07/25 06:09:37;;;;;;;21.37;19.17;;;;;;;;;;5095509;28;20447;-59
2021/07/25 06:12:04;;;;;;;21.03;18.00;;;;;;;;;;5095048;28;20524;-60
2021/07/25 06:14:31;;;;;;;19.90;17.90;;;;;;;;;;5095636;28;20444;-60
2021/07/25 06:16:59;;;;;;;20.67;18.50;;;;;;;;;;5095435;28;20438;-60
2021/07/25 06:19:26;;;;;;;21.87;18.03;;;;;;;;;;5095043;28;20942;-60
2021/07/25 06:21:53;;;;;;;18.40;16.57;;;;;;;;;;5102142;28;20460;-60
2021/07/25 06:24:20;;;;;;;18.70;16.87;;;;;;;;;;5095555;28;20858;-60
2021/07/25 06:26:49;;;;;;;18.27;16.33;;;;;;;;;;5095104;28;20498;-60
2021/07/25 06:29:17;;;;;;;18.87;16.80;;;;;;;;;;5094923;28;20528;-59
2021/07/25 06:31:44;;;;;;;21.30;17.20;;;;;;;;;;5094222;28;20468;-60
2021/07/25 06:34:11;;;;;;;18.10;16.40;;;;;;;;;;5095068;28;20453;-60
2021/07/25 06:36:38;;;;;;;17.77;16.03;;;;;;;;;;5094928;28;20444;-60
2021/07/25 06:39:07;;;;;;;19.50;16.93;;;;;;;;;;5094920;28;20449;-60
2021/07/25 06:41:34;;;;;;;19.53;17.53;;;;;;;;;;5095093;28;20446;-60
2021/07/25 06:44:03;;;;;;;17.23;15.47;;;;;;;;;;5095587;28;20443;-59
2021/07/25 06:46:30;;;;;;;18.20;16.40;;;;;;;;;;5095460;28;20443;-58
2021/07/25 06:48:57;;;;;;;16.43;14.60;;;;;;;;;;5094795;28;20533;-60
2021/07/25 06:51:24;;;;;;;19.77;15.50;;;;;;;;;;5094434;28;20838;-60
2021/07/25 06:53:51;;;;;;;17.87;16.07;;;;;;;;;;5094349;28;20446;-60
2021/07/25 06:56:19;;;;;;;18.60;16.13;;;;;;;;;;5094673;28;20443;-60
2021/07/25 06:58:46;;;;;;;18.50;15.47;;;;;;;;;;5094510;28;20447;-60
2021/07/25 07:01:16;;;;;;;22.67;17.60;;;;;;;;;;5094317;28;20453;-60
2021/07/25 07:03:43;;;;;;;17.07;14.20;;;;;;;;;;5094580;28;20467;-60
2021/07/25 07:06:11;;;;;;;16.33;14.63;;;;;;;;;;5094007;28;20529;-61
2021/07/25 07:08:38;;;;;;;15.77;14.20;;;;;;;;;;5094502;28;20469;-59
2021/07/25 07:11:05;;;;;;;17.10;15.50;;;;;;;;;;5094177;28;20859;-60
2021/07/25 07:13:32;;;;;;;17.33;15.50;;;;;;;;;;5093952;28;20970;-60
2021/07/25 07:16:00;;;;;;;16.37;14.67;;;;;;;;;;5094138;28;20450;-59
2021/07/25 07:18:28;;;;;;;18.87;15.87;;;;;;;;;;5093841;28;20439;-59
2021/07/25 07:20:55;;;;;;;17.47;15.67;;;;;;;;;;5094185;28;20447;-60
2021/07/25 07:23:24;;;;;;;17.13;15.30;;;;;;;;;;5093694;28;20474;-58
2021/07/25 07:25:52;;;;;;;17.13;15.33;;;;;;;;;;5096783;28;20449;-59
2021/07/25 07:28:20;;;;;;;17.43;14.73;;;;;;;;;;5102876;28;20503;-60
2021/07/25 07:30:48;;;;;;;18.70;15.70;;;;;;;;;;5100802;28;20440;-60
2021/07/25 07:33:16;;;;;;;16.63;14.87;;;;;;;;;;5099037;28;20533;-59
2021/07/25 07:35:45;;;;;;;16.07;14.37;;;;;;;;;;5100581;28;20457;-60
2021/07/25 07:38:13;;;;;;;16.43;13.70;;;;;;;;;;5103104;28;20493;-59
2021/07/25 07:40:41;;;;;;;18.40;14.80;;;;;;;;;;5103519;28;20443;-60
2021/07/25 07:43:09;;;;;;;16.83;15.13;;;;;;;;;;5099074;28;21016;-59
2021/07/25 07:45:37;;;;;;;18.20;13.87;;;;;;;;;;5096239;28;20934;-59
2021/07/25 07:48:04;;;;;;;17.63;14.20;;;;;;;;;;5097164;28;20469;-59
2021/07/25 07:50:31;;;;;;;16.73;14.97;;;;;;;;;;5095210;28;20991;-59
2021/07/25 07:53:00;;;;;;;15.63;14.13;;;;;;;;;;5095095;28;20465;-60
2021/07/25 07:55:27;;;;;;;16.57;13.93;;;;;;;;;;5093889;28;20442;-60
2021/07/25 07:57:54;;;;;;;15.37;13.90;;;;;;;;;;5093837;28;20449;-60
2021/07/25 08:00:22;;;;;;;15.20;13.60;;;;;;;;;;5093735;28;20450;-59
2021/07/25 08:02:49;;;;;;;15.17;13.37;;;;;;;;;;5094033;28;20522;-59
2021/07/25 08:05:18;;;;;;;15.00;13.47;;;;;;;;;;5093762;28;20509;-60
2021/07/25 08:07:45;;;;;;;16.07;13.90;;;;;;;;;;5093267;28;20518;-60
2021/07/25 08:10:14;;;;;;;14.57;13.23;;;;;;;;;;5093671;28;20934;-59
2021/07/25 08:12:41;;;;;;;15.10;13.50;;;;;;;;;;5101800;28;20464;-59
2021/07/25 08:15:10;;;;;;;15.47;13.27;;;;;;;;;;5096717;28;20448;-60
2021/07/25 08:17:37;;;;;;;15.00;13.50;;;;;;;;;;5093556;28;20451;-61
2021/07/25 08:20:04;;;;;;;12.63;11.53;;;;;;;;;;5093212;28;20442;-61
2021/07/25 08:22:32;;;;;;;13.27;12.10;;;;;;;;;;5093307;28;20465;-59
2021/07/25 08:24:59;;;;;;;14.57;13.10;;;;;;;;;;5093422;28;20453;-61
2021/07/25 08:27:28;;;;;;;13.90;11.80;;;;;;;;;;5093285;28;20442;-60
2021/07/25 08:29:55;;;;;;;12.90;11.60;;;;;;;;;;5092956;28;20518;-60
2021/07/25 08:32:22;;;;;;;12.33;11.23;;;;;;;;;;5093170;28;20527;-61
2021/07/25 08:34:49;;;;;;;13.40;12.10;;;;;;;;;;5093298;28;20852;-60
2021/07/25 08:37:17;;;;;;;13.40;12.00;;;;;;;;;;5093104;28;20507;-59
2021/07/25 08:39:44;;;;;;;13.87;12.50;;;;;;;;;;5093170;28;20443;-60
2021/07/25 08:42:12;;;;;;;13.53;12.23;;;;;;;;;;5092777;28;20466;-59
2021/07/25 08:44:45;;;;;;;15.63;14.13;;;;;;;;;;5093071;28;20857;-61
2021/07/25 08:47:19;;;;;;;13.93;12.53;;;;;;;;;;5092735;28;20419;-59
2021/07/25 08:49:52;;;;;;;12.73;11.53;;;;;;;;;;5092754;28;20434;-59
2021/07/25 08:52:20;;;;;;;14.70;11.93;;;;;;;;;;5092983;28;20503;-59
2021/07/25 08:54:48;;;;;;;12.53;11.30;;;;;;;;;;5096205;28;20546;-59
2021/07/25 08:57:17;;;;;;;14.73;13.13;;;;;;;;;;5097140;28;20465;-59
2021/07/25 08:59:48;;;;;;;12.97;11.67;;;;;;;;;;5097066;28;20449;-59
2021/07/25 09:02:19;;;;;;;13.40;12.10;;;;;;;;;;5096627;28;20467;-60
2021/07/25 09:04:47;;;;;;;12.43;11.23;;;;;;;;;;5096994;28;20431;-61
2021/07/25 09:07:15;;;;;;;13.00;11.73;;;;;;;;;;5096593;28;20483;-60
2021/07/25 09:09:43;;;;;;;13.07;11.77;;;;;;;;;;5096344;28;20530;-60
2021/07/25 09:12:11;;;;;;;13.00;10.50;;;;;;;;;;5096554;28;20912;-61
2021/07/25 09:14:41;;;;;;;14.20;11.70;;;;;;;;;;5096885;28;20494;-59
2021/07/25 09:17:09;;;;;;;11.80;10.47;;;;;;;;;;5100896;28;20750;-60
2021/07/25 09:19:37;;;;;;;11.40;10.40;;;;;;;;;;5109362;28;20953;-61
2021/07/25 09:22:04;;;;;;;13.40;9.73;;;;;;;;;;5108902;28;20528;-61
2021/07/25 09:24:32;;;;;;;10.73;9.73;;;;;;;;;;5110589;28;20445;-61
2021/07/25 09:27:00;;;;;;;11.40;10.30;;;;;;;;;;5101011;28;20449;-61
2021/07/25 09:29:28;;;;;;;12.00;10.47;;;;;;;;;;5099106;28;20537;-60
2021/07/25 09:32:11;;;;;;;11.27;10.17;;;;;;;;;;5096640;28;20983;-61
2021/07/25 09:34:40;;;;;;;13.30;9.67;;;;;;;;;;5095941;28;20515;-61
2021/07/25 09:37:14;;;;;;;11.17;10.07;;;;;;;;;;5096222;28;20441;-59
2021/07/25 09:39:42;;;;;;;11.37;10.23;;;;;;;;;;5096090;28;20979;-60
2021/07/25 09:42:10;;;;;;;10.93;9.87;;;;;;;;;;5096926;28;20472;-61
2021/07/25 09:44:54;;;;;;;10.73;9.73;;;;;;;;;;5096542;28;20504;-60
2021/07/25 09:47:28;;;;;;;10.67;9.67;;;;;;;;;;5096409;28;20448;-61
2021/07/25 09:49:57;;;;;;;10.80;9.80;;;;;;;;;;5096007;28;20468;-61
2021/07/25 09:52:32;;;;;;;10.90;9.77;;;;;;;;;;5096046;28;20491;-60
2021/07/25 09:55:00;;;;;;;11.77;9.40;;;;;;;;;;5095712;28;20434;-61
2021/07/25 09:57:28;;;;;;;11.10;10.07;;;;;;;;;;5095978;28;20458;-59
2021/07/25 09:59:56;;;;;;;10.93;9.83;;;;;;;;;;5097002;28;20440;-61
2021/07/25 10:02:38;;;;;;;10.73;9.83;;;;;;;;;;5105505;22;20511;-56
2021/07/25 10:05:10;;;;;;;11.03;10.03;;;;;;;;;;5034925;28;20481;-57
2021/07/25 10:07:38;;;;;;;10.47;9.43;;;;;;;;;;5034964;28;20506;-54
2021/07/25 10:10:06;;;;;;;11.07;9.97;;;;;;;;;;5034723;28;20543;-55
2021/07/25 10:12:34;;;;;;;11.60;10.60;;;;;;;;;;5034701;28;21038;-55
2021/07/25 10:15:02;;;;;;;11.13;10.10;;;;;;;;;;5035063;28;20533;-55
2021/07/25 10:17:33;;;;;;;9.70;8.80;;;;;;;;;;5035061;28;20451;-51
2021/07/25 10:20:01;;;;;;;10.20;9.27;;;;;;;;;;5035025;28;20459;-51
2021/07/25 10:22:32;;;;;;;11.30;10.20;;;;;;;;;;5034712;28;20477;-55
2021/07/25 10:25:01;;;;;;;11.20;10.20;;;;;;;;;;5034976;28;20856;-55
2021/07/25 10:27:29;;;;;;;10.77;9.77;;;;;;;;;;5034614;28;20456;-55
2021/07/25 10:29:58;;;;;;;10.40;9.40;;;;;;;;;;5034660;28;20478;-52
2021/07/25 10:32:26;;;;;;;9.47;8.57;;;;;;;;;;5034627;28;20521;-52
2021/07/25 10:34:55;;;;;;;10.40;9.40;;;;;;;;;;5034785;28;20504;-52
2021/07/25 10:37:23;;;;;;;10.40;9.50;;;;;;;;;;5034732;28;20458;-52
2021/07/25 10:39:53;;;;;;;10.47;9.43;;;;;;;;;;5034841;28;20443;-52
2021/07/25 10:42:23;;;;;;;9.87;8.97;;;;;;;;;;5034424;28;20528;-52
2021/07/25 10:44:51;;;;;;;10.30;9.40;;;;;;;;;;5034626;28;20446;-52
2021/07/25 10:47:28;;;;;;;11.20;9.13;;;;;;;;;;5034953;28;20553;-52
2021/07/25 10:50:00;;;;;;;10.50;8.53;;;;;;;;;;5036481;28;21091;-53
2021/07/25 10:52:28;;;;;;;10.37;9.37;;;;;;;;;;5036992;28;20983;-53
2021/07/25 10:54:57;;;;;;;8.83;8.13;;;;;;;;;;5037132;28;20513;-52
2021/07/25 10:57:25;;;;;;;9.83;8.83;;;;;;;;;;5036603;28;20521;-54
2021/07/25 10:59:55;;;;;;;9.63;8.70;;;;;;;;;;5037545;28;20439;-52
2021/07/25 11:02:50;;;;;;;9.87;8.97;;;;;;;;;;5036115;28;20883;-53
2021/07/25 11:05:18;;;;;;;8.50;7.63;;;;;;;;;;4989053;28;20458;-53
2021/07/25 11:07:57;;;;;;;9.50;8.63;;;;;;;;;;5034735;28;20493;-54
2021/07/25 11:10:32;;;;;;;9.10;8.20;;;;;;;;;;5034171;28;20479;-53
2021/07/25 11:13:20;;;;;;;10.00;9.00;;;;;;;;;;5034108;28;20503;-53
2021/07/25 11:15:49;;;;;;;8.93;8.03;;;;;;;;;;5034781;28;20795;-53
2021/07/25 11:18:28;;;;;;;9.33;8.40;;;;;;;;;;5035278;28;20444;-53
2021/07/25 11:20:58;;;;;;;8.90;8.17;;;;;;;;;;5034949;28;20446;-53
2021/07/25 11:23:41;;;;;;;8.10;7.40;;;;;;;;;;5034332;28;20471;-51
2021/07/25 11:26:27;;;;;;;10.40;7.80;;;;;;;;;;5035116;28;20451;-52
2021/07/25 11:28:56;;;;;;;9.40;8.60;;;;;;;;;;5034930;28;20483;-55
2021/07/25 11:31:33;;;;;;;10.00;9.00;;;;;;;;;;5034489;28;20538;-55
2021/07/25 11:34:01;;;;;;;9.17;8.37;;;;;;;;;;5033693;28;20521;-55
2021/07/25 11:36:29;;;;;;;8.93;8.03;;;;;;;;;;5033634;28;20865;-57
2021/07/25 11:38:59;;;;;;;9.23;8.37;;;;;;;;;;5033159;28;20469;-58
2021/07/25 11:41:27;;;;;;;10.23;9.23;;;;;;;;;;5033268;28;20460;-58
2021/07/25 11:44:00;;;;;;;13.40;12.23;;;;;;;;;;5033345;28;20454;-57
2021/07/25 11:46:29;;;;;;;16.23;14.83;;;;;;;;;;5033306;28;20455;-57
2021/07/25 11:49:03;;;;;;;32.30;29.40;;;;;;;;;;5033089;28;20480;-57
2021/07/25 11:51:30;;;;;;;37.00;33.63;;;;;;;;;;5033063;28;20459;-57
2021/07/25 11:53:57;;;;;;;16.47;15.00;;;;;;;;;;5033164;28;20463;-57
2021/07/25 11:56:24;;;;;;;9.80;8.87;;;;;;;;;;5032741;28;20573;-57
2021/07/25 11:59:05;;;;;;;8.77;8.07;;;;;;;;;;5032778;28;20439;-57
2021/07/25 12:01:33;;;;;;;8.53;7.77;;;;;;;;;;5032688;28;20456;-58
2021/07/25 12:04:01;;;;;;;9.47;8.67;;;;;;;;;;5033176;28;20491;-58
2021/07/25 12:06:29;;;;;;;8.30;7.53;;;;;;;;;;5032883;28;20449;-57
2021/07/25 12:09:05;;;;;;;8.30;7.50;;;;;;;;;;5032716;28;20988;-57
2021/07/25 12:11:33;;;;;;;8.43;7.70;;;;;;;;;;5032976;28;20562;-58
2021/07/25 12:14:00;;;;;;;7.20;6.60;;;;;;;;;;5033071;28;20525;-58
2021/07/25 12:16:44;;;;;;;8.17;7.37;;;;;;;;;;5032816;28;20456;-58
2021/07/25 12:19:18;;;;;;;8.40;7.57;;;;;;;;;;5032545;28;20520;-56
2021/07/25 12:21:46;;;;;;;9.50;7.20;;;;;;;;;;5032749;28;20472;-58
2021/07/25 12:24:29;;;;;;;7.80;7.10;;;;;;;;;;5033097;28;20445;-57
2021/07/25 12:26:57;;;;;;;7.87;7.07;;;;;;;;;;5032459;28;20444;-56
2021/07/25 12:29:41;;;;;;;7.33;6.73;;;;;;;;;;5035469;28;20472;-55
2021/07/25 12:32:26;;;;;;;8.13;7.43;;;;;;;;;;5036622;28;20479;-56
2021/07/25 12:34:54;;;;;;;8.80;7.90;;;;;;;;;;5036778;28;20494;-58
2021/07/25 12:37:31;;;;;;;8.43;7.73;;;;;;;;;;5036649;28;20814;-57
2021/07/25 12:40:12;;;;;;;8.03;7.23;;;;;;;;;;5036977;28;20490;-57
2021/07/25 12:42:40;;;;;;;7.97;7.30;;;;;;;;;;5036366;28;20460;-57
2021/07/25 12:45:26;;;;;;;7.40;6.70;;;;;;;;;;5036438;28;20849;-57
2021/07/25 12:48:08;;;;;;;7.87;7.07;;;;;;;;;;5036665;28;20460;-57
2021/07/25 12:50:46;;;;;;;7.57;6.97;;;;;;;;;;5036255;28;20998;-57
2021/07/25 12:53:17;;;;;;;7.03;6.47;;;;;;;;;;5036753;28;20526;-57
2021/07/25 12:55:46;;;;;;;7.60;6.73;;;;;;;;;;5036381;28;20452;-57
2021/07/25 12:58:13;;;;;;;8.23;7.27;;;;;;;;;;5036084;28;20543;-57
2021/07/25 13:00:52;;;;;;;6.97;6.37;;;;;;;;;;5036121;28;20858;-57
2021/07/25 13:06:05;;;;;;;6.30;5.80;;;;;;;;;;5036151;28;20408;-57
2021/07/25 13:08:32;;;;;;;6.53;6.03;;;;;;;;;;5035969;28;20443;-57
2021/07/25 13:11:00;;;;;;;6.93;6.33;;;;;;;;;;5036242;28;20483;-57
2021/07/25 13:13:27;;;;;;;6.17;5.67;;;;;;;;;;5035957;28;20983;-56
2021/07/25 13:15:54;;;;;;;6.90;6.20;;;;;;;;;;5036302;28;20443;-58
2021/07/25 13:18:23;;;;;;;7.40;6.70;;;;;;;;;;5036195;28;20446;-55
2021/07/25 13:20:50;;;;;;;6.93;6.23;;;;;;;;;;5036058;28;20444;-56
2021/07/25 13:23:19;;;;;;;6.83;6.23;;;;;;;;;;5035904;28;20464;-56
2021/07/25 13:25:46;;;;;;;6.70;6.10;;;;;;;;;;5035889;28;20443;-57
2021/07/25 13:28:13;;;;;;;5.30;4.90;;;;;;;;;;5035981;28;20457;-57
2021/07/25 13:30:40;;;;;;;6.27;5.67;;;;;;;;;;5035849;28;20490;-56
2021/07/25 13:33:08;;;;;;;6.50;6.00;;;;;;;;;;5035494;28;20517;-57
2021/07/25 13:35:35;;;;;;;6.30;5.70;;;;;;;;;;5035872;28;20444;-57
2021/07/25 13:38:02;;;;;;;6.50;6.00;;;;;;;;;;5035758;28;20451;-57
2021/07/25 13:40:31;;;;;;;6.60;5.97;;;;;;;;;;5035039;28;20442;-57
2021/07/25 13:42:58;;;;;;;7.03;6.33;;;;;;;;;;5035662;28;20500;-57
2021/07/25 13:45:25;;;;;;;6.40;5.90;;;;;;;;;;5035886;28;20463;-56
2021/07/25 13:47:54;;;;;;;6.60;6.00;;;;;;;;;;5035809;28;20501;-57
2021/07/25 13:50:21;;;;;;;6.63;5.90;;;;;;;;;;5035214;28;20477;-57
2021/07/25 13:52:51;;;;;;;6.50;5.90;;;;;;;;;;5035630;28;20474;-57
2021/07/25 13:55:18;;;;;;;7.57;6.87;;;;;;;;;;5035335;28;20453;-57
2021/07/25 13:57:47;;;;;;;7.00;6.40;;;;;;;;;;5035220;28;20500;-57
2021/07/25 14:00:14;;;;;;;7.20;6.60;;;;;;;;;;5035275;28;20498;-58
2021/07/25 14:02:44;;;;;;;7.47;6.87;;;;;;;;;;5035043;28;20529;-57
2021/07/25 14:05:11;;;;;;;6.90;6.20;;;;;;;;;;5035292;28;20463;-57
2021/07/25 14:07:38;;;;;;;7.50;6.90;;;;;;;;;;5034903;28;20455;-57
2021/07/25 14:10:06;;;;;;;7.37;6.60;;;;;;;;;;5035093;28;20539;-57
2021/07/25 14:12:33;;;;;;;6.53;5.80;;;;;;;;;;5034723;28;20903;-57
2021/07/25 14:15:02;;;;;;;6.33;5.73;;;;;;;;;;5034946;28;20448;-57
2021/07/25 14:17:29;;;;;;;6.63;6.03;;;;;;;;;;5034798;28;20450;-57
2021/07/25 14:19:56;;;;;;;9.40;8.60;;;;;;;;;;5034601;28;20469;-57
2021/07/25 14:22:23;;;;;;;7.00;6.37;;;;;;;;;;5035061;28;20466;-57
2021/07/25 14:24:51;;;;;;;6.90;6.30;;;;;;;;;;5034859;28;20448;-57
2021/07/25 14:27:18;;;;;;;6.77;6.17;;;;;;;;;;5034352;28;20946;-57
2021/07/25 14:29:45;;;;;;;7.50;6.90;;;;;;;;;;5034696;28;20475;-57
2021/07/25 14:32:14;;;;;;;7.37;6.20;;;;;;;;;;5034626;28;20467;-57
2021/07/25 14:34:41;;;;;;;7.37;5.80;;;;;;;;;;5034612;28;20446;-57
2021/07/25 14:37:08;;;;;;;7.70;7.00;;;;;;;;;;5034163;28;20509;-56